createdAt,value
2023-04-19T00:00:31.846Z,0.00
2023-04-19T00:01:31.849Z,0.00
2023-04-19T00:02:32.008Z,0.00
2023-04-19T00:03:32.211Z,0.00
2023-04-19T00:04:31.983Z,0.00
2023-04-19T00:05:32.062Z,0.00
2023-04-19T00:06:31.910Z,0.00
2023-04-19T00:07:31.924Z,0.00
2023-04-19T00:08:31.926Z,0.00
2023-04-19T00:09:31.948Z,0.00
2023-04-19T00:10:31.946Z,0.00
2023-04-19T00:11:31.961Z,0.00
2023-04-19T00:12:31.972Z,0.00
2023-04-19T00:13:31.984Z,0.00
2023-04-19T00:14:31.986Z,0.00
2023-04-19T00:15:32.006Z,0.00
2023-04-19T00:16:32.124Z,0.00
2023-04-19T00:17:32.046Z,0.00
2023-04-19T00:18:32.041Z,0.00
2023-04-19T00:19:32.048Z,0.00
2023-04-19T00:20:32.059Z,0.00
2023-04-19T00:21:32.067Z,0.00
2023-04-19T00:22:32.080Z,0.00
2023-04-19T00:23:32.092Z,0.00
2023-04-19T00:24:32.102Z,0.00
2023-04-19T00:25:32.131Z,0.00
2023-04-19T00:26:32.124Z,0.00
2023-04-19T00:27:32.156Z,0.00
2023-04-19T00:28:32.155Z,0.00
2023-04-19T00:29:32.159Z,0.00
2023-04-19T00:30:32.216Z,0.00
2023-04-19T00:31:32.219Z,0.00
2023-04-19T00:32:32.248Z,0.00
2023-04-19T00:33:32.204Z,0.00
2023-04-19T00:34:32.220Z,0.00
2023-04-19T00:35:32.225Z,0.00
2023-04-19T00:36:32.233Z,0.00
2023-04-19T00:37:32.252Z,0.00
2023-04-19T00:38:32.262Z,0.00
2023-04-19T00:39:32.271Z,0.00
2023-04-19T00:40:32.283Z,0.00
2023-04-19T00:41:32.290Z,0.00
2023-04-19T00:42:32.330Z,0.00
2023-04-19T00:43:32.314Z,0.00
2023-04-19T00:44:32.324Z,0.00
2023-04-19T00:45:32.344Z,0.00
2023-04-19T00:46:32.387Z,0.00
2023-04-19T00:47:32.382Z,0.00
2023-04-19T00:48:32.399Z,0.00
2023-04-19T00:49:32.381Z,0.00
2023-04-19T00:50:32.392Z,0.00
2023-04-19T00:51:32.401Z,0.00
2023-04-19T00:52:32.418Z,0.00
2023-04-19T00:53:32.425Z,0.00
2023-04-19T00:54:32.433Z,0.00
2023-04-19T00:55:32.445Z,0.00
2023-04-19T00:56:32.456Z,0.00
2023-04-19T00:57:32.489Z,0.00
2023-04-19T00:58:32.481Z,0.00
2023-04-19T00:59:32.514Z,0.00
2023-04-19T01:00:32.503Z,0.00
2023-04-19T01:01:32.573Z,0.00
2023-04-19T01:02:32.597Z,0.00
2023-04-19T01:03:32.795Z,0.00
2023-04-19T01:04:32.677Z,0.00
2023-04-19T01:05:32.562Z,0.00
2023-04-19T01:06:32.573Z,0.00
2023-04-19T01:07:32.578Z,0.00
2023-04-19T01:08:32.590Z,0.00
2023-04-19T01:09:32.600Z,0.00
2023-04-19T01:10:32.616Z,0.00
2023-04-19T01:11:32.626Z,0.00
2023-04-19T01:12:32.635Z,0.00
2023-04-19T01:13:32.643Z,0.00
2023-04-19T01:14:32.654Z,0.00
2023-04-19T01:15:32.709Z,0.00
2023-04-19T01:16:32.718Z,0.00
2023-04-19T01:17:32.729Z,0.00
2023-04-19T01:18:32.703Z,0.00
2023-04-19T01:19:32.707Z,0.00
2023-04-19T01:20:32.744Z,0.00
2023-04-19T01:21:32.742Z,0.00
2023-04-19T01:22:32.741Z,0.00
2023-04-19T01:23:32.764Z,0.00
2023-04-19T01:24:32.766Z,0.00
2023-04-19T01:25:32.780Z,0.00
2023-04-19T01:26:32.790Z,0.00
2023-04-19T01:27:32.816Z,0.00
2023-04-19T01:28:32.808Z,0.00
2023-04-19T01:29:32.824Z,0.00
2023-04-19T01:30:32.826Z,0.00
2023-04-19T01:31:32.889Z,0.00
2023-04-19T01:32:32.873Z,0.00
2023-04-19T01:33:32.865Z,0.00
2023-04-19T01:34:32.875Z,0.00
2023-04-19T01:35:32.884Z,0.00
2023-04-19T01:36:32.895Z,0.00
2023-04-19T01:37:32.908Z,0.00
2023-04-19T01:38:32.918Z,0.00
2023-04-19T01:39:32.931Z,0.00
2023-04-19T01:40:32.941Z,0.00
2023-04-19T01:41:32.963Z,0.00
2023-04-19T01:42:32.962Z,0.00
2023-04-19T01:43:32.971Z,0.00
2023-04-19T01:44:32.984Z,0.00
2023-04-19T01:45:32.994Z,0.00
2023-04-19T01:46:33.011Z,0.00
2023-04-19T01:47:33.046Z,0.00
2023-04-19T01:48:33.025Z,0.00
2023-04-19T01:49:33.033Z,0.00
2023-04-19T01:50:33.057Z,0.00
2023-04-19T01:51:33.056Z,0.00
2023-04-19T01:52:33.069Z,0.00
2023-04-19T01:53:33.078Z,0.00
2023-04-19T01:54:33.093Z,0.00
2023-04-19T01:55:33.104Z,0.00
2023-04-19T01:56:33.110Z,0.00
2023-04-19T01:57:33.122Z,0.00
2023-04-19T01:58:33.129Z,0.00
2023-04-19T01:59:33.147Z,0.00
2023-04-19T02:00:33.175Z,0.00
2023-04-19T02:01:33.176Z,0.00
2023-04-19T02:02:33.265Z,0.00
2023-04-19T02:03:33.281Z,0.00
2023-04-19T02:04:33.191Z,0.00
2023-04-19T02:05:33.200Z,0.00
2023-04-19T02:06:33.214Z,0.00
2023-04-19T02:07:33.230Z,0.00
2023-04-19T02:08:33.237Z,0.00
2023-04-19T02:09:33.244Z,0.00
2023-04-19T02:10:33.256Z,0.00
2023-04-19T02:11:33.278Z,0.00
2023-04-19T02:12:33.285Z,0.00
2023-04-19T02:13:33.293Z,0.00
2023-04-19T02:14:33.297Z,0.00
2023-04-19T02:15:33.311Z,0.00
2023-04-19T02:16:35.613Z,0.00
2023-04-19T02:17:33.381Z,0.00
2023-04-19T02:18:33.351Z,0.00
2023-04-19T02:19:33.351Z,0.00
2023-04-19T02:20:33.360Z,0.00
2023-04-19T02:21:33.373Z,0.00
2023-04-19T02:22:33.381Z,0.00
2023-04-19T02:23:33.403Z,0.00
2023-04-19T02:24:33.407Z,0.00
2023-04-19T02:25:33.412Z,0.00
2023-04-19T02:26:33.425Z,0.00
2023-04-19T02:27:33.431Z,0.00
2023-04-19T02:28:33.443Z,0.00
2023-04-19T02:29:33.454Z,0.00
2023-04-19T02:30:33.468Z,0.00
2023-04-19T02:31:33.541Z,0.00
2023-04-19T02:32:33.496Z,0.00
2023-04-19T02:33:33.508Z,0.00
2023-04-19T02:34:33.502Z,0.00
2023-04-19T02:35:33.514Z,0.00
2023-04-19T02:36:33.526Z,0.00
2023-04-19T02:37:33.533Z,0.00
2023-04-19T02:38:33.570Z,0.00
2023-04-19T02:39:33.554Z,0.00
2023-04-19T02:40:33.568Z,0.00
2023-04-19T02:41:33.574Z,0.00
2023-04-19T02:42:33.584Z,0.00
2023-04-19T02:43:33.594Z,0.00
2023-04-19T02:44:33.606Z,0.00
2023-04-19T02:45:33.615Z,0.00
2023-04-19T02:46:33.769Z,0.00
2023-04-19T02:47:33.707Z,0.00
2023-04-19T02:48:33.642Z,0.00
2023-04-19T02:49:33.658Z,0.00
2023-04-19T02:50:33.661Z,0.00
2023-04-19T02:51:33.685Z,0.00
2023-04-19T02:52:33.681Z,0.00
2023-04-19T02:53:33.705Z,0.00
2023-04-19T02:54:33.728Z,0.00
2023-04-19T02:55:33.715Z,0.00
2023-04-19T02:56:33.723Z,0.00
2023-04-19T02:57:33.731Z,0.00
2023-04-19T02:58:33.751Z,0.00
2023-04-19T02:59:33.749Z,0.00
2023-04-19T03:00:33.761Z,0.00
2023-04-19T03:01:33.812Z,0.00
2023-04-19T03:02:34.013Z,0.00
2023-04-19T03:03:33.918Z,0.00
2023-04-19T03:04:33.924Z,0.00
2023-04-19T03:05:33.810Z,0.00
2023-04-19T03:06:33.821Z,0.00
2023-04-19T03:07:33.831Z,0.00
2023-04-19T03:08:33.854Z,0.00
2023-04-19T03:09:33.857Z,0.00
2023-04-19T03:10:33.870Z,0.00
2023-04-19T03:11:33.880Z,0.00
2023-04-19T03:12:33.880Z,0.00
2023-04-19T03:13:33.887Z,0.00
2023-04-19T03:14:33.898Z,0.00
2023-04-19T03:15:33.941Z,0.00
2023-04-19T03:16:33.922Z,0.00
2023-04-19T03:17:33.966Z,0.00
2023-04-19T03:18:33.938Z,0.00
2023-04-19T03:19:33.945Z,0.00
2023-04-19T03:20:33.954Z,0.00
2023-04-19T03:21:33.965Z,0.00
2023-04-19T03:22:33.977Z,0.00
2023-04-19T03:23:33.981Z,0.00
2023-04-19T03:24:35.516Z,4.00
2023-04-19T03:25:34.006Z,4.00
2023-04-19T03:26:34.007Z,4.00
2023-04-19T03:27:34.025Z,0.00
2023-04-19T03:28:34.026Z,4.00
2023-04-19T03:29:34.036Z,4.00
2023-04-19T03:30:34.054Z,4.00
2023-04-19T03:31:34.130Z,4.00
2023-04-19T03:32:34.078Z,8.00
2023-04-19T03:33:34.074Z,4.00
2023-04-19T03:34:34.081Z,4.00
2023-04-19T03:35:34.094Z,12.00
2023-04-19T03:36:34.106Z,12.00
2023-04-19T03:37:34.113Z,12.00
2023-04-19T03:38:34.125Z,16.00
2023-04-19T03:39:34.128Z,16.00
2023-04-19T03:40:34.143Z,20.00
2023-04-19T03:41:34.150Z,24.00
2023-04-19T03:42:34.166Z,28.00
2023-04-19T03:43:34.169Z,32.00
2023-04-19T03:44:34.180Z,36.00
2023-04-19T03:45:34.192Z,40.00
2023-04-19T03:46:34.224Z,48.00
2023-04-19T03:47:34.262Z,52.00
2023-04-19T03:48:34.218Z,64.00
2023-04-19T03:49:34.230Z,72.00
2023-04-19T03:50:34.232Z,80.00
2023-04-19T03:51:34.244Z,92.00
2023-04-19T03:52:34.258Z,104.00
2023-04-19T03:53:34.263Z,116.00
2023-04-19T03:54:34.268Z,132.00
2023-04-19T03:55:34.288Z,148.00
2023-04-19T03:56:34.297Z,168.00
2023-04-19T03:57:34.310Z,184.00
2023-04-19T03:58:34.312Z,208.00
2023-04-19T03:59:34.321Z,228.00
2023-04-19T04:00:34.332Z,252.00
2023-04-19T04:01:34.340Z,276.00
2023-04-19T04:02:34.502Z,300.00
2023-04-19T04:03:34.528Z,328.00
2023-04-19T04:04:34.784Z,360.00
2023-04-19T04:05:34.511Z,392.00
2023-04-19T04:06:34.385Z,424.00
2023-04-19T04:07:34.443Z,456.00
2023-04-19T04:08:34.402Z,492.00
2023-04-19T04:09:34.409Z,528.00
2023-04-19T04:10:34.422Z,568.00
2023-04-19T04:11:34.431Z,604.00
2023-04-19T04:12:34.440Z,644.00
2023-04-19T04:13:34.469Z,688.00
2023-04-19T04:14:34.459Z,728.00
2023-04-19T04:15:34.467Z,772.00
2023-04-19T04:16:34.527Z,816.00
2023-04-19T04:17:34.527Z,864.00
2023-04-19T04:18:34.508Z,908.00
2023-04-19T04:19:34.506Z,956.00
2023-04-19T04:20:34.514Z,1000.00
2023-04-19T04:21:34.519Z,1048.00
2023-04-19T04:22:34.532Z,1096.00
2023-04-19T04:23:34.541Z,1144.00
2023-04-19T04:24:34.546Z,1192.00
2023-04-19T04:25:34.570Z,1240.00
2023-04-19T04:26:34.569Z,1292.00
2023-04-19T04:27:34.585Z,1340.00
2023-04-19T04:28:34.611Z,1388.00
2023-04-19T04:29:34.602Z,1436.00
2023-04-19T04:30:34.614Z,1484.00
2023-04-19T04:31:34.660Z,1540.00
2023-04-19T04:32:34.697Z,1588.00
2023-04-19T04:33:34.658Z,1636.00
2023-04-19T04:34:34.654Z,1688.00
2023-04-19T04:35:34.670Z,1744.00
2023-04-19T04:36:34.679Z,1876.00
2023-04-19T04:37:34.695Z,2012.00
2023-04-19T04:38:34.706Z,2036.00
2023-04-19T04:39:34.706Z,2000.00
2023-04-19T04:40:34.723Z,2008.00
2023-04-19T04:41:34.727Z,2088.00
2023-04-19T04:42:34.753Z,2252.00
2023-04-19T04:43:34.747Z,2472.00
2023-04-19T04:44:34.756Z,2356.00
2023-04-19T04:45:34.778Z,2356.00
2023-04-19T04:46:34.778Z,2700.00
2023-04-19T04:47:34.874Z,2668.00
2023-04-19T04:48:34.801Z,2412.00
2023-04-19T04:49:34.816Z,2496.00
2023-04-19T04:50:34.817Z,2480.00
2023-04-19T04:51:34.847Z,2496.00
2023-04-19T04:52:34.839Z,2552.00
2023-04-19T04:53:34.847Z,2584.00
2023-04-19T04:54:34.851Z,2656.00
2023-04-19T04:55:34.871Z,2712.00
2023-04-19T04:56:34.913Z,2744.00
2023-04-19T04:57:34.884Z,2768.00
2023-04-19T04:58:34.894Z,2812.00
2023-04-19T04:59:34.903Z,2864.00
2023-04-19T05:00:34.917Z,2920.00
2023-04-19T05:01:34.950Z,2960.00
2023-04-19T05:02:35.012Z,2980.00
2023-04-19T05:03:35.001Z,3016.00
2023-04-19T05:04:34.967Z,3044.00
2023-04-19T05:05:34.960Z,3068.00
2023-04-19T05:06:34.973Z,3080.00
2023-04-19T05:07:34.984Z,3176.00
2023-04-19T05:08:34.985Z,3232.00
2023-04-19T05:09:35.007Z,3164.00
2023-04-19T05:10:35.022Z,3184.00
2023-04-19T05:11:35.026Z,3320.00
2023-04-19T05:12:35.029Z,3292.00
2023-04-19T05:13:35.034Z,3444.00
2023-04-19T05:14:35.054Z,3308.00
2023-04-19T05:15:35.052Z,3372.00
2023-04-19T05:16:35.094Z,3424.00
2023-04-19T05:17:35.105Z,3436.00
2023-04-19T05:18:35.075Z,3596.00
2023-04-19T05:19:35.086Z,3556.00
2023-04-19T05:20:35.110Z,3540.00
2023-04-19T05:21:35.165Z,3696.00
2023-04-19T05:22:35.118Z,3872.00
2023-04-19T05:23:35.134Z,3784.00
2023-04-19T05:24:35.138Z,3840.00
2023-04-19T05:25:35.148Z,3792.00
2023-04-19T05:26:35.168Z,3716.00
2023-04-19T05:27:35.165Z,4232.00
2023-04-19T05:28:35.172Z,6140.00
2023-04-19T05:29:35.182Z,4992.00
2023-04-19T05:30:35.198Z,3804.00
2023-04-19T05:31:35.279Z,3672.00
2023-04-19T05:32:35.299Z,3732.00
2023-04-19T05:33:35.221Z,3700.00
2023-04-19T05:34:35.232Z,3760.00
2023-04-19T05:35:35.242Z,3852.00
2023-04-19T05:36:35.257Z,3844.00
2023-04-19T05:37:35.265Z,3812.00
2023-04-19T05:38:35.274Z,3964.00
2023-04-19T05:39:35.286Z,4120.00
2023-04-19T05:40:35.293Z,3944.00
2023-04-19T05:41:35.309Z,3900.00
2023-04-19T05:42:35.310Z,3968.00
2023-04-19T05:43:35.325Z,3944.00
2023-04-19T05:44:35.335Z,3980.00
2023-04-19T05:45:35.349Z,4100.00
2023-04-19T05:46:35.428Z,5044.00
2023-04-19T05:47:35.369Z,5800.00
2023-04-19T05:48:35.369Z,5204.00
2023-04-19T05:49:35.383Z,4616.00
2023-04-19T05:50:35.392Z,4180.00
2023-04-19T05:51:35.401Z,4172.00
2023-04-19T05:52:35.419Z,4588.00
2023-04-19T05:53:35.434Z,5300.00
2023-04-19T05:54:35.430Z,5504.00
2023-04-19T05:55:35.444Z,6428.00
2023-04-19T05:56:35.452Z,7280.00
2023-04-19T05:57:35.463Z,6828.00
2023-04-19T05:58:35.471Z,6572.00
2023-04-19T05:59:35.489Z,6816.00
2023-04-19T06:00:35.513Z,6748.00
2023-04-19T06:01:35.500Z,7360.00
2023-04-19T06:02:35.618Z,8660.00
2023-04-19T06:03:35.659Z,7988.00
2023-04-19T06:04:35.635Z,10020.00
2023-04-19T06:05:35.565Z,12412.00
2023-04-19T06:06:35.549Z,13052.00
2023-04-19T06:07:40.226Z,15820.00
2023-04-19T06:08:35.574Z,10836.00
2023-04-19T06:09:35.598Z,14792.00
2023-04-19T06:10:48.971Z,14244.00
2023-04-19T06:11:47.144Z,11112.00
2023-04-19T06:12:35.612Z,12632.00
2023-04-19T06:13:35.627Z,11716.00
2023-04-19T06:14:35.631Z,12664.00
2023-04-19T06:15:35.652Z,13604.00
2023-04-19T06:16:35.678Z,13700.00
2023-04-19T06:17:35.736Z,13556.00
2023-04-19T06:18:35.683Z,13672.00
2023-04-19T06:19:35.690Z,16992.00
2023-04-19T06:20:35.698Z,17216.00
2023-04-19T06:21:35.728Z,20448.00
2023-04-19T06:22:35.723Z,23968.00
2023-04-19T06:23:35.740Z,28672.00
2023-04-19T06:24:35.750Z,32928.00
2023-04-19T06:25:35.755Z,35200.00
2023-04-19T06:26:35.774Z,35424.00
2023-04-19T06:27:35.777Z,35072.00
2023-04-19T06:28:35.787Z,36192.00
2023-04-19T06:29:35.826Z,35488.00
2023-04-19T06:30:35.817Z,35584.00
2023-04-19T06:31:35.829Z,35136.00
2023-04-19T06:32:35.880Z,36896.00
2023-04-19T06:33:35.879Z,38528.00
2023-04-19T06:34:35.861Z,38176.00
2023-04-19T06:35:35.879Z,37120.00
2023-04-19T06:36:35.891Z,38272.00
2023-04-19T06:37:35.907Z,38528.00
2023-04-19T06:38:35.924Z,38144.00
2023-04-19T06:39:35.925Z,37376.00
2023-04-19T06:40:35.940Z,37600.00
2023-04-19T06:41:35.955Z,37376.00
2023-04-19T06:42:35.967Z,38144.00
2023-04-19T06:43:35.982Z,39648.00
2023-04-19T06:44:35.993Z,39872.00
2023-04-19T06:45:36.048Z,40224.00
2023-04-19T06:46:36.020Z,39328.00
2023-04-19T06:47:36.101Z,40800.00
2023-04-19T06:48:36.058Z,40352.00
2023-04-19T06:49:36.064Z,36480.00
2023-04-19T06:50:36.085Z,36640.00
2023-04-19T06:51:36.093Z,36256.00
2023-04-19T06:52:36.106Z,35840.00
2023-04-19T06:53:36.121Z,36416.00
2023-04-19T06:54:36.135Z,33376.00
2023-04-19T06:55:36.163Z,29888.00
2023-04-19T06:56:36.168Z,29216.00
2023-04-19T06:57:36.183Z,28064.00
2023-04-19T06:58:36.216Z,26368.00
2023-04-19T06:59:36.210Z,25632.00
2023-04-19T07:00:36.245Z,25568.00
2023-04-19T07:01:36.264Z,25536.00
2023-04-19T07:02:36.423Z,25632.00
2023-04-19T07:03:36.416Z,25984.00
2023-04-19T07:04:36.395Z,26336.00
2023-04-19T07:05:36.412Z,26144.00
2023-04-19T07:06:36.317Z,26016.00
2023-04-19T07:07:36.332Z,26016.00
2023-04-19T07:08:49.272Z,25888.00
2023-04-19T07:09:36.371Z,26016.00
2023-04-19T07:10:36.380Z,26144.00
2023-04-19T07:11:36.397Z,26368.00
2023-04-19T07:12:36.420Z,26592.00
2023-04-19T07:13:36.435Z,26752.00
2023-04-19T07:14:36.440Z,26912.00
2023-04-19T07:15:36.544Z,27040.00
2023-04-19T07:16:36.483Z,27296.00
2023-04-19T07:17:36.626Z,27456.00
2023-04-19T07:18:36.507Z,27712.00
2023-04-19T07:19:36.541Z,27904.00
2023-04-19T07:20:36.536Z,28192.00
2023-04-19T07:21:36.556Z,28288.00
2023-04-19T07:22:36.585Z,28704.00
2023-04-19T07:23:36.588Z,28832.00
2023-04-19T07:24:36.610Z,29056.00
2023-04-19T07:25:36.618Z,29376.00
2023-04-19T07:26:36.646Z,29632.00
2023-04-19T07:27:36.654Z,30016.00
2023-04-19T07:28:36.670Z,30144.00
2023-04-19T07:29:36.696Z,30400.00
2023-04-19T07:30:36.715Z,30688.00
2023-04-19T07:31:36.772Z,30912.00
2023-04-19T07:32:36.943Z,31296.00
2023-04-19T07:33:36.755Z,31552.00
2023-04-19T07:34:36.772Z,31872.00
2023-04-19T07:35:36.790Z,32128.00
2023-04-19T07:36:36.810Z,32480.00
2023-04-19T07:37:36.825Z,32768.00
2023-04-19T07:38:36.843Z,32960.00
2023-04-19T07:39:36.858Z,33344.00
2023-04-19T07:40:36.876Z,33760.00
2023-04-19T07:41:36.896Z,34208.00
2023-04-19T07:42:36.913Z,34400.00
2023-04-19T07:43:38.151Z,34432.00
2023-04-19T07:44:36.946Z,34592.00
2023-04-19T07:45:36.964Z,34784.00
2023-04-19T07:46:37.018Z,34944.00
2023-04-19T07:47:37.104Z,35296.00
2023-04-19T07:48:37.014Z,35488.00
2023-04-19T07:49:37.037Z,35616.00
2023-04-19T07:50:37.048Z,35872.00
2023-04-19T07:51:37.073Z,36000.00
2023-04-19T07:52:37.099Z,36320.00
2023-04-19T07:53:37.105Z,36800.00
2023-04-19T07:54:37.120Z,36864.00
2023-04-19T07:55:37.144Z,37024.00
2023-04-19T07:56:37.166Z,37248.00
2023-04-19T07:57:37.179Z,37632.00
2023-04-19T07:58:37.197Z,37760.00
2023-04-19T07:59:37.213Z,37664.00
2023-04-19T08:00:37.235Z,36672.00
2023-04-19T08:01:37.394Z,28896.00
2023-04-19T08:02:37.332Z,13640.00
2023-04-19T08:03:37.440Z,6456.00
2023-04-19T08:04:37.563Z,6320.00
2023-04-19T08:05:37.349Z,6356.00
2023-04-19T08:06:37.337Z,6396.00
2023-04-19T08:07:37.363Z,6428.00
2023-04-19T08:08:37.375Z,6472.00
2023-04-19T08:09:37.458Z,6536.00
2023-04-19T08:10:37.408Z,6600.00
2023-04-19T08:11:37.426Z,6640.00
2023-04-19T08:12:45.021Z,6676.00
2023-04-19T08:13:37.815Z,6712.00
2023-04-19T08:14:47.157Z,6732.00
2023-04-19T08:16:20.175Z,6776.00
2023-04-19T08:17:06.380Z,6824.00
2023-04-19T08:17:42.127Z,6868.00
2023-04-19T08:18:37.691Z,6908.00
2023-04-19T08:19:37.561Z,6928.00
2023-04-19T08:20:37.578Z,6952.00
2023-04-19T08:21:41.000Z,6968.00
2023-04-19T08:22:37.615Z,7012.00
2023-04-19T08:23:47.380Z,7068.00
2023-04-19T08:24:37.636Z,7120.00
2023-04-19T08:25:37.665Z,7188.00
2023-04-19T08:26:37.678Z,7268.00
2023-04-19T08:27:37.692Z,7308.00
2023-04-19T08:28:37.706Z,7412.00
2023-04-19T08:29:37.712Z,7504.00
2023-04-19T08:30:37.727Z,7580.00
2023-04-19T08:31:37.770Z,7668.00
2023-04-19T08:32:37.795Z,7716.00
2023-04-19T08:33:37.775Z,7824.00
2023-04-19T08:34:37.787Z,8040.00
2023-04-19T08:35:37.802Z,8248.00
2023-04-19T08:36:43.606Z,8484.00
2023-04-19T08:37:37.862Z,8936.00
2023-04-19T08:38:37.846Z,9744.00
2023-04-19T08:39:38.043Z,11000.00
2023-04-19T08:40:37.874Z,11868.00
2023-04-19T08:41:37.889Z,12748.00
2023-04-19T08:42:37.901Z,13372.00
2023-04-19T08:43:39.213Z,13916.00
2023-04-19T08:44:43.306Z,14812.00
2023-04-19T08:45:38.006Z,14548.00
2023-04-19T08:46:37.961Z,14204.00
2023-04-19T08:47:48.236Z,14692.00
2023-04-19T08:48:38.029Z,15024.00
2023-04-19T08:49:39.954Z,15432.00
2023-04-19T08:50:45.613Z,17400.00
2023-04-19T08:51:38.033Z,15988.00
2023-04-19T08:52:47.827Z,15788.00
2023-04-19T08:53:38.064Z,16816.00
2023-04-19T08:54:38.080Z,17332.00
2023-04-19T08:55:39.852Z,17792.00
2023-04-19T08:56:38.113Z,20000.00
2023-04-19T08:57:38.124Z,22368.00
2023-04-19T08:58:54.703Z,23200.00
2023-04-19T08:59:38.154Z,21920.00
2023-04-19T09:00:38.171Z,21504.00
2023-04-19T09:01:38.188Z,19840.00
2023-04-19T09:02:38.446Z,18592.00
2023-04-19T09:03:51.182Z,17184.00
2023-04-19T09:04:38.455Z,18272.00
2023-04-19T09:05:38.634Z,19552.00
2023-04-19T09:06:38.508Z,19776.00
2023-04-19T09:07:38.301Z,21056.00
2023-04-19T09:08:38.293Z,22624.00
2023-04-19T09:09:48.841Z,22240.00
2023-04-19T09:10:38.325Z,21984.00
2023-04-19T09:11:38.339Z,20928.00
2023-04-19T09:12:38.364Z,19936.00
2023-04-19T09:13:38.379Z,20640.00
2023-04-19T09:14:40.035Z,21600.00
2023-04-19T09:15:38.476Z,22752.00
2023-04-19T09:16:38.424Z,23648.00
2023-04-19T09:17:38.768Z,24192.00
2023-04-19T09:18:48.764Z,24384.00
2023-04-19T09:19:38.525Z,22816.00
2023-04-19T09:20:38.629Z,19200.00
2023-04-19T09:21:38.581Z,14700.00
2023-04-19T09:22:38.623Z,11756.00
2023-04-19T09:23:38.580Z,10352.00
2023-04-19T09:25:04.502Z,9880.00
2023-04-19T09:25:52.812Z,9952.00
2023-04-19T09:26:38.628Z,10668.00
2023-04-19T09:27:38.611Z,11364.00
2023-04-19T09:28:38.632Z,12332.00
2023-04-19T09:29:38.716Z,13036.00
2023-04-19T09:30:50.214Z,12956.00
2023-04-19T09:32:38.847Z,13288.00
2023-04-19T09:33:38.770Z,14360.00
2023-04-19T09:34:38.716Z,15384.00
2023-04-19T09:35:38.745Z,16968.00
2023-04-19T09:36:38.754Z,17856.00
2023-04-19T09:37:57.196Z,19808.00
2023-04-19T09:38:38.786Z,21376.00
2023-04-19T09:39:38.815Z,22016.00
2023-04-19T09:40:38.822Z,21664.00
2023-04-19T09:41:39.956Z,19808.00
2023-04-19T09:42:55.447Z,18880.00
2023-04-19T09:43:58.914Z,18048.00
2023-04-19T09:45:38.911Z,19232.00
2023-04-19T09:46:38.962Z,20128.00
2023-04-19T09:47:38.968Z,20672.00
2023-04-19T09:48:38.954Z,19648.00
2023-04-19T09:49:48.595Z,17360.00
2023-04-19T09:50:53.601Z,15724.00
2023-04-19T09:51:39.002Z,14056.00
2023-04-19T09:52:39.022Z,12500.00
2023-04-19T09:53:39.042Z,11364.00
2023-04-19T09:54:39.056Z,11380.00
2023-04-19T09:55:48.867Z,12160.00
2023-04-19T09:56:39.091Z,13728.00
2023-04-19T09:57:39.128Z,13600.00
2023-04-19T09:58:50.089Z,12208.00
2023-04-19T09:59:39.138Z,11788.00
2023-04-19T10:00:47.820Z,11816.00
2023-04-19T10:01:39.199Z,12992.00
2023-04-19T10:02:39.286Z,14000.00
2023-04-19T10:03:39.428Z,13944.00
2023-04-19T10:05:39.343Z,12228.00
2023-04-19T10:06:58.271Z,10784.00
2023-04-19T10:07:39.344Z,9552.00
2023-04-19T10:08:39.297Z,8336.00
2023-04-19T10:09:49.461Z,11344.00
2023-04-19T10:10:42.322Z,10052.00
2023-04-19T10:11:39.357Z,18080.00
2023-04-19T10:13:07.013Z,12552.00
2023-04-19T10:13:39.392Z,49728.00
2023-04-19T10:14:39.396Z,54656.00
2023-04-19T10:15:50.568Z,31360.00
2023-04-19T10:16:39.456Z,33920.00
2023-04-19T10:17:39.485Z,36992.00
2023-04-19T10:18:39.470Z,53664.00
2023-04-19T10:19:39.483Z,12800.00
2023-04-19T10:20:39.510Z,53632.00
2023-04-19T10:21:39.550Z,40480.00
2023-04-19T10:22:39.541Z,14164.00
2023-04-19T10:23:39.558Z,17488.00
2023-04-19T10:24:39.593Z,16068.00
2023-04-19T10:25:39.612Z,16104.00
2023-04-19T10:26:39.616Z,38208.00
2023-04-19T10:27:39.641Z,22176.00
2023-04-19T10:28:39.656Z,22528.00
2023-04-19T10:29:39.674Z,12512.00
2023-04-19T10:30:39.696Z,13640.00
2023-04-19T10:31:39.795Z,63136.00
2023-04-19T10:32:39.771Z,14424.00
2023-04-19T10:33:39.757Z,65856.00
2023-04-19T10:34:39.796Z,16376.00
2023-04-19T10:35:39.802Z,67328.00
2023-04-19T10:36:39.837Z,17824.00
2023-04-19T10:37:39.835Z,21600.00
2023-04-19T10:38:39.853Z,64544.00
2023-04-19T10:39:39.878Z,9784.00
2023-04-19T10:40:39.970Z,8596.00
2023-04-19T10:41:39.916Z,7876.00
2023-04-19T10:42:39.935Z,8248.00
2023-04-19T10:43:39.959Z,9664.00
2023-04-19T10:44:39.985Z,62688.00
2023-04-19T10:45:40.018Z,61856.00
2023-04-19T10:46:40.175Z,62624.00
2023-04-19T10:47:40.086Z,62592.00
2023-04-19T10:48:40.069Z,61792.00
2023-04-19T10:49:40.081Z,61184.00
2023-04-19T10:50:40.150Z,60736.00
2023-04-19T10:51:40.125Z,59424.00
2023-04-19T10:52:40.151Z,60448.00
2023-04-19T10:53:40.168Z,60192.00
2023-04-19T10:54:40.198Z,56192.00
2023-04-19T10:55:40.212Z,54240.00
2023-04-19T10:56:40.237Z,53792.00
2023-04-19T10:57:40.259Z,55296.00
2023-04-19T10:58:40.281Z,18784.00
2023-04-19T10:59:40.310Z,56448.00
2023-04-19T11:00:40.361Z,56160.00
2023-04-19T11:01:40.687Z,56320.00
2023-04-19T11:02:40.533Z,56224.00
2023-04-19T11:03:40.540Z,57824.00
2023-04-19T11:04:40.566Z,55488.00
2023-04-19T11:05:40.450Z,54944.00
2023-04-19T11:06:40.481Z,46368.00
2023-04-19T11:07:40.499Z,24800.00
2023-04-19T11:08:40.527Z,41984.00
2023-04-19T11:09:40.546Z,36608.00
2023-04-19T11:10:40.596Z,47168.00
2023-04-19T11:11:40.596Z,46080.00
2023-04-19T11:12:40.621Z,45728.00
2023-04-19T11:13:40.646Z,44800.00
2023-04-19T11:14:40.687Z,49504.00
2023-04-19T11:15:40.713Z,51200.00
2023-04-19T11:16:46.097Z,47936.00
2023-04-19T11:17:40.766Z,44608.00
2023-04-19T11:18:40.769Z,34528.00
2023-04-19T11:19:40.794Z,32512.00
2023-04-19T11:20:40.903Z,34048.00
2023-04-19T11:21:40.843Z,36832.00
2023-04-19T11:22:40.873Z,36352.00
2023-04-19T11:23:40.902Z,40896.00
2023-04-19T11:24:40.921Z,39008.00
2023-04-19T11:25:40.946Z,17984.00
2023-04-19T11:26:40.965Z,20032.00
2023-04-19T11:27:40.988Z,29440.00
2023-04-19T11:28:41.023Z,45856.00
2023-04-19T11:29:41.035Z,40736.00
2023-04-19T11:30:41.125Z,37376.00
2023-04-19T11:31:41.149Z,34880.00
2023-04-19T11:32:41.118Z,27232.00
2023-04-19T11:33:41.134Z,25248.00
2023-04-19T11:34:41.154Z,37664.00
2023-04-19T11:35:41.175Z,28224.00
2023-04-19T11:36:41.196Z,22976.00
2023-04-19T11:37:41.218Z,23232.00
2023-04-19T11:38:41.239Z,25920.00
2023-04-19T11:39:41.267Z,24736.00
2023-04-19T11:40:41.289Z,23104.00
2023-04-19T11:41:41.312Z,23040.00
2023-04-19T11:42:41.335Z,19904.00
2023-04-19T11:43:41.372Z,17824.00
2023-04-19T11:44:41.380Z,16348.00
2023-04-19T11:45:41.410Z,18080.00
2023-04-19T11:46:41.497Z,21248.00
2023-04-19T11:47:41.488Z,48672.00
2023-04-19T11:48:41.506Z,59264.00
2023-04-19T11:49:41.495Z,64352.00
2023-04-19T11:50:41.530Z,53312.00
2023-04-19T11:51:41.546Z,24000.00
2023-04-19T11:52:41.554Z,27456.00
2023-04-19T11:53:41.627Z,17152.00
2023-04-19T11:54:41.602Z,15648.00
2023-04-19T11:55:41.624Z,12852.00
2023-04-19T11:56:41.644Z,12864.00
2023-04-19T11:57:41.771Z,13096.00
2023-04-19T11:58:41.685Z,13308.00
2023-04-19T11:59:41.718Z,13136.00
2023-04-19T12:00:41.761Z,13200.00
2023-04-19T12:01:41.751Z,13204.00
2023-04-19T12:02:41.898Z,13080.00
2023-04-19T12:03:41.938Z,13292.00
2023-04-19T12:04:42.103Z,14144.00
2023-04-19T12:05:41.963Z,15308.00
2023-04-19T12:06:41.861Z,15852.00
2023-04-19T12:07:41.881Z,16268.00
2023-04-19T12:08:41.902Z,16896.00
2023-04-19T12:09:41.928Z,18560.00
2023-04-19T12:10:41.943Z,20832.00
2023-04-19T12:11:41.962Z,22592.00
2023-04-19T12:12:41.978Z,24352.00
2023-04-19T12:13:42.001Z,24064.00
2023-04-19T12:14:42.019Z,25120.00
2023-04-19T12:15:42.041Z,25568.00
2023-04-19T12:16:42.109Z,24128.00
2023-04-19T12:17:54.640Z,25120.00
2023-04-19T12:18:42.099Z,26304.00
2023-04-19T12:19:42.124Z,29152.00
2023-04-19T12:20:42.136Z,30336.00